createdAt,value
2023-02-22T00:02:10.912Z,7.16
2023-02-22T00:04:37.488Z,6.94
2023-02-22T00:07:03.874Z,6.75
2023-02-22T00:09:30.249Z,7.28
2023-02-22T00:11:56.656Z,8.02
2023-02-22T00:14:23.097Z,8.02
2023-02-22T00:16:49.497Z,7.30
2023-02-22T00:19:15.946Z,7.73
2023-02-22T00:21:42.363Z,7.61
2023-02-22T00:24:08.755Z,7.28
2023-02-22T00:26:35.169Z,7.58
2023-02-22T00:29:01.577Z,8.97
2023-02-22T00:31:28.090Z,7.40
2023-02-22T00:33:54.554Z,7.51
2023-02-22T00:36:20.927Z,7.32
2023-02-22T00:38:47.322Z,6.54
2023-02-22T00:41:13.734Z,6.23
2023-02-22T00:43:40.125Z,6.00
2023-02-22T00:46:06.564Z,6.11
2023-02-22T00:48:33.030Z,6.54
2023-02-22T00:50:59.427Z,6.11
2023-02-22T00:53:25.825Z,6.01
2023-02-22T00:55:52.349Z,6.32
2023-02-22T00:58:18.770Z,5.87
2023-02-22T01:00:45.171Z,6.10
2023-02-22T01:03:11.565Z,6.01
2023-02-22T01:05:38.160Z,5.89
2023-02-22T01:08:04.704Z,5.52
2023-02-22T01:10:31.123Z,5.94
2023-02-22T01:12:57.511Z,6.01
2023-02-22T01:15:23.932Z,5.92
2023-02-22T01:17:50.415Z,6.29
2023-02-22T01:20:16.826Z,6.01
2023-02-22T01:22:43.290Z,6.71
2023-02-22T01:25:09.692Z,6.53
2023-02-22T01:27:36.076Z,7.50
2023-02-22T01:30:02.479Z,7.43
2023-02-22T01:32:28.871Z,7.54
2023-02-22T01:34:55.289Z,7.30
2023-02-22T01:37:21.672Z,7.32
2023-02-22T01:39:48.044Z,7.44
2023-02-22T01:42:14.427Z,7.35
2023-02-22T01:44:40.813Z,8.12
2023-02-22T01:47:07.207Z,8.41
2023-02-22T01:49:33.614Z,8.13
2023-02-22T01:51:59.982Z,7.34
2023-02-22T01:54:26.382Z,7.04
2023-02-22T01:56:52.780Z,6.77
2023-02-22T01:59:19.158Z,6.55
2023-02-22T02:01:45.589Z,7.12
2023-02-22T02:04:12.051Z,7.34
2023-02-22T02:06:38.480Z,7.62
2023-02-22T02:09:04.882Z,7.58
2023-02-22T02:11:31.257Z,7.36
2023-02-22T02:13:57.654Z,7.28
2023-02-22T02:16:24.180Z,7.88
2023-02-22T02:18:50.591Z,8.35
2023-02-22T02:21:17.256Z,7.55
2023-02-22T02:23:43.807Z,7.43
2023-02-22T02:26:10.205Z,6.87
2023-02-22T02:28:36.587Z,6.87
2023-02-22T02:31:03.031Z,6.51
2023-02-22T02:33:29.435Z,6.44
2023-02-22T02:35:55.862Z,6.84
2023-02-22T02:38:22.300Z,6.80
2023-02-22T02:40:48.748Z,7.66
2023-02-22T02:43:15.141Z,7.79
2023-02-22T02:45:41.543Z,8.05
2023-02-22T02:48:07.963Z,7.93
2023-02-22T02:50:34.383Z,7.55
2023-02-22T02:53:00.769Z,7.86
2023-02-22T02:55:27.167Z,7.61
2023-02-22T02:57:53.610Z,7.68
2023-02-22T03:00:20.006Z,7.93
2023-02-22T03:02:46.397Z,7.93
2023-02-22T03:05:12.772Z,8.29
2023-02-22T03:07:39.266Z,8.22
2023-02-22T03:10:05.708Z,7.76
2023-02-22T03:12:32.090Z,8.23
2023-02-22T03:14:58.505Z,8.38
2023-02-22T03:17:24.897Z,8.71
2023-02-22T03:19:51.270Z,8.96
2023-02-22T03:22:17.776Z,9.99
2023-02-22T03:24:44.161Z,9.90
2023-02-22T03:27:10.544Z,10.72
2023-02-22T03:29:36.964Z,10.45
2023-02-22T03:32:03.501Z,10.40
2023-02-22T03:34:29.987Z,11.46
2023-02-22T03:36:56.395Z,11.23
2023-02-22T03:39:22.776Z,11.00
2023-02-22T03:41:49.197Z,11.47
2023-02-22T03:44:15.689Z,11.46
2023-02-22T03:46:42.153Z,10.85
2023-02-22T03:49:08.646Z,10.82
2023-02-22T03:51:35.044Z,11.31
2023-02-22T03:54:01.467Z,13.83
2023-02-22T03:56:27.870Z,16.74
2023-02-22T03:58:54.299Z,14.93
2023-02-22T04:01:20.731Z,14.95
2023-02-22T04:03:47.249Z,13.55
2023-02-22T04:06:13.668Z,29.56
2023-02-22T04:08:40.063Z,99.20
2023-02-22T04:11:06.487Z,48.05
2023-02-22T04:13:32.880Z,14.15
2023-02-22T04:15:59.374Z,14.01
2023-02-22T04:18:25.825Z,15.29
2023-02-22T04:20:52.254Z,14.24
2023-02-22T04:23:18.639Z,12.39
2023-02-22T04:25:45.053Z,11.85
2023-02-22T04:28:11.463Z,12.18
2023-02-22T04:30:37.925Z,11.56
2023-02-22T04:33:04.377Z,11.64
2023-02-22T04:35:30.796Z,10.92
2023-02-22T04:37:57.202Z,10.97
2023-02-22T04:40:23.583Z,10.70
2023-02-22T04:42:49.981Z,10.68
2023-02-22T04:45:16.403Z,10.98
2023-02-22T04:47:42.788Z,11.03
2023-02-22T04:50:09.217Z,11.59
2023-02-22T04:52:35.642Z,11.22
2023-02-22T04:55:02.067Z,11.14
2023-02-22T04:57:28.442Z,11.89
2023-02-22T04:59:54.855Z,11.96
2023-02-22T05:02:21.305Z,12.45
2023-02-22T05:04:47.789Z,12.41
2023-02-22T05:07:14.207Z,12.11
2023-02-22T05:09:40.594Z,12.41
2023-02-22T05:12:06.973Z,11.03
2023-02-22T05:14:33.374Z,11.13
2023-02-22T05:16:59.809Z,11.17
2023-02-22T05:19:26.228Z,10.85
2023-02-22T05:21:52.612Z,11.91
2023-02-22T05:24:19.028Z,10.77
2023-02-22T05:26:45.451Z,11.09
2023-02-22T05:29:11.850Z,11.11
2023-02-22T05:31:38.339Z,10.69
2023-02-22T05:34:04.790Z,11.26
2023-02-22T05:36:31.297Z,11.25
2023-02-22T05:38:57.681Z,10.58
2023-02-22T05:41:24.212Z,10.55
2023-02-22T05:43:50.619Z,10.63
2023-02-22T05:46:17.044Z,10.49
2023-02-22T05:48:43.463Z,9.94
2023-02-22T05:51:09.868Z,10.63
2023-02-22T05:53:36.269Z,14.22
2023-02-22T05:56:02.666Z,20.96
2023-02-22T05:58:29.139Z,11.07
2023-02-22T06:00:55.516Z,9.65
2023-02-22T06:03:21.932Z,9.04
2023-02-22T06:05:48.448Z,9.38
2023-02-22T06:08:14.904Z,11.40
2023-02-22T06:10:41.306Z,9.45
2023-02-22T06:13:07.725Z,8.84
2023-02-22T06:15:34.120Z,8.03
2023-02-22T06:18:00.550Z,8.53
2023-02-22T06:20:26.944Z,8.79
2023-02-22T06:22:53.343Z,8.78
2023-02-22T06:25:19.767Z,9.16
2023-02-22T06:27:46.164Z,10.33
2023-02-22T06:30:13.421Z,17.63
2023-02-22T06:32:39.939Z,28.07
2023-02-22T06:35:06.359Z,24.83
2023-02-22T06:37:32.797Z,17.59
2023-02-22T06:40:04.732Z,13.32
2023-02-22T06:42:31.665Z,10.98
2023-02-22T06:44:58.111Z,9.68
2023-02-22T06:47:24.497Z,9.84
2023-02-22T06:49:50.900Z,10.28
2023-02-22T06:52:17.340Z,10.73
2023-02-22T06:54:43.760Z,12.56
2023-02-22T06:57:10.221Z,12.67
2023-02-22T06:59:36.607Z,14.13
2023-02-22T07:02:03.079Z,15.10
2023-02-22T07:04:29.477Z,15.19
2023-02-22T07:06:55.901Z,14.97
2023-02-22T07:09:22.305Z,14.50
2023-02-22T07:11:48.706Z,13.60
2023-02-22T07:14:15.131Z,13.51
2023-02-22T07:16:41.600Z,12.85
2023-02-22T07:19:08.105Z,12.60
2023-02-22T07:21:34.510Z,11.59
2023-02-22T07:24:00.914Z,14.41
2023-02-22T07:26:27.350Z,17.84
2023-02-22T07:28:53.780Z,19.64
2023-02-22T07:31:20.248Z,21.74
2023-02-22T07:33:46.689Z,17.22
2023-02-22T07:36:13.137Z,14.06
2023-02-22T07:38:39.518Z,13.48
2023-02-22T07:41:05.911Z,13.27
2023-02-22T07:43:32.346Z,13.64
2023-02-22T07:45:58.837Z,14.94
2023-02-22T07:48:25.329Z,15.87
2023-02-22T07:50:51.751Z,16.98
2023-02-22T07:53:18.187Z,19.33
2023-02-22T07:55:44.578Z,17.75
2023-02-22T07:58:11.018Z,19.31
2023-02-22T08:00:37.471Z,24.60
2023-02-22T08:03:03.924Z,25.25
2023-02-22T08:05:30.395Z,25.07
2023-02-22T08:07:56.825Z,24.86
2023-02-22T08:10:23.281Z,25.36
2023-02-22T08:12:49.719Z,24.11
2023-02-22T08:15:16.145Z,23.65
2023-02-22T08:17:42.554Z,22.63
2023-02-22T08:20:08.988Z,22.34
2023-02-22T08:22:35.411Z,22.85
2023-02-22T08:25:01.880Z,22.24
2023-02-22T08:27:28.316Z,23.62
2023-02-22T08:29:54.747Z,21.17
2023-02-22T08:32:21.383Z,21.41
2023-02-22T08:34:47.869Z,21.39
2023-02-22T08:37:14.296Z,21.14
2023-02-22T08:39:40.707Z,20.93
2023-02-22T08:42:07.119Z,21.41
2023-02-22T08:44:33.627Z,22.08
2023-02-22T08:47:00.011Z,20.65
2023-02-22T08:49:26.402Z,20.90
2023-02-22T08:51:52.794Z,22.39
2023-02-22T08:54:19.216Z,22.16
2023-02-22T08:56:45.633Z,21.18
2023-02-22T08:59:12.186Z,20.82
2023-02-22T09:01:39.021Z,21.14
2023-02-22T09:04:05.774Z,20.17
2023-02-22T09:06:32.260Z,20.40
2023-02-22T09:08:58.676Z,20.13
2023-02-22T09:11:25.095Z,21.74
2023-02-22T09:13:51.522Z,21.49
2023-02-22T09:16:17.945Z,22.17
2023-02-22T09:18:44.730Z,22.54
2023-02-22T09:21:11.136Z,23.32
2023-02-22T09:23:37.591Z,24.16
2023-02-22T09:26:04.043Z,24.50
2023-02-22T09:28:30.453Z,24.49
2023-02-22T09:30:56.878Z,23.80
2023-02-22T09:33:23.309Z,25.29
2023-02-22T09:35:49.754Z,24.27
2023-02-22T09:38:16.170Z,22.81
2023-02-22T09:40:42.626Z,23.74
2023-02-22T09:43:09.068Z,22.98
2023-02-22T09:45:35.601Z,21.17
2023-02-22T09:48:11.708Z,22.97
2023-02-22T09:50:45.798Z,22.43
2023-02-22T09:53:12.198Z,22.06
2023-02-22T09:55:38.620Z,22.63
2023-02-22T09:58:05.102Z,22.01
2023-02-22T10:00:31.607Z,21.08
2023-02-22T10:02:58.133Z,21.74
2023-02-22T10:05:24.598Z,21.78
2023-02-22T10:07:51.039Z,20.58
2023-02-22T10:10:17.502Z,21.36
2023-02-22T10:12:43.918Z,21.03
2023-02-22T10:15:10.349Z,22.31
2023-02-22T10:17:36.759Z,22.08
2023-02-22T10:20:03.178Z,20.40
2023-02-22T10:22:29.606Z,20.67
2023-02-22T10:24:56.133Z,21.04
2023-02-22T10:27:22.563Z,22.36
2023-02-22T10:29:50.128Z,22.44
2023-02-22T10:32:17.870Z,22.13
2023-02-22T10:34:45.356Z,23.59
2023-02-22T10:37:11.803Z,22.83
2023-02-22T10:39:38.569Z,23.61
2023-02-22T10:42:06.161Z,22.70
2023-02-22T10:44:33.723Z,23.03
2023-02-22T10:47:00.151Z,24.85
2023-02-22T10:49:26.564Z,24.03
2023-02-22T10:51:53.501Z,24.71
2023-02-22T10:54:20.100Z,24.80
2023-02-22T10:56:46.687Z,24.29
2023-02-22T10:59:13.278Z,23.67
2023-02-22T11:01:39.889Z,24.41
2023-02-22T11:04:06.458Z,23.38
2023-02-22T11:06:34.069Z,23.67
2023-02-22T11:09:00.701Z,23.15
2023-02-22T11:11:27.117Z,22.96
2023-02-22T11:13:53.538Z,23.05
2023-02-22T11:16:20.042Z,23.79
2023-02-22T11:18:47.073Z,24.64
2023-02-22T11:21:14.654Z,24.14
2023-02-22T11:23:44.735Z,24.94
2023-02-22T11:26:11.420Z,24.07
2023-02-22T11:28:38.458Z,24.43
2023-02-22T11:31:05.097Z,24.40
2023-02-22T11:33:31.695Z,23.40
2023-02-22T11:35:59.238Z,24.13
2023-02-22T11:38:25.825Z,24.25
2023-02-22T11:40:53.421Z,23.18
2023-02-22T11:43:21.013Z,22.80
2023-02-22T11:45:57.780Z,23.68
2023-02-22T11:48:26.301Z,22.34
2023-02-22T11:50:52.777Z,23.46
2023-02-22T11:53:19.498Z,23.99
2023-02-22T11:55:46.088Z,24.21
2023-02-22T11:58:13.774Z,23.52
2023-02-22T12:00:41.282Z,24.27
2023-02-22T12:03:07.871Z,24.15
2023-02-22T12:05:34.305Z,24.06
2023-02-22T12:08:13.772Z,25.32
2023-02-22T12:10:45.719Z,23.68
2023-02-22T12:13:12.202Z,24.07
2023-02-22T12:15:38.694Z,25.06
2023-02-22T12:18:05.486Z,25.18
2023-02-22T12:20:33.122Z,25.13
2023-02-22T12:22:59.752Z,25.18
2023-02-22T12:25:26.588Z,26.02
2023-02-22T12:27:53.048Z,25.47
2023-02-22T12:30:19.537Z,25.22
2023-02-22T12:32:48.090Z,24.63
2023-02-22T12:35:14.713Z,25.07
2023-02-22T12:37:41.329Z,25.06
2023-02-22T12:40:08.920Z,24.70
2023-02-22T12:42:35.362Z,25.61
2023-02-22T12:45:02.131Z,24.97
2023-02-22T12:47:29.065Z,24.42
2023-02-22T12:49:57.290Z,24.18
2023-02-22T12:52:23.680Z,25.78
2023-02-22T12:54:50.125Z,26.13
2023-02-22T12:57:17.065Z,25.80
2023-02-22T12:59:43.703Z,24.54
2023-02-22T13:02:10.302Z,24.24
2023-02-22T13:04:36.938Z,22.93
2023-02-22T13:07:03.361Z,23.39
2023-02-22T13:09:29.810Z,22.26
2023-02-22T13:11:56.233Z,23.11
2023-02-22T13:14:22.705Z,22.07
2023-02-22T13:16:49.864Z,23.28
2023-02-22T13:19:16.463Z,22.71
2023-02-22T13:21:42.953Z,22.45
2023-02-22T13:24:09.433Z,22.33
2023-02-22T13:26:36.209Z,23.16
2023-02-22T13:29:02.870Z,22.42
2023-02-22T13:31:29.355Z,23.10
2023-02-22T13:33:56.022Z,23.02
2023-02-22T13:36:22.444Z,22.99
2023-02-22T13:38:49.206Z,22.77
2023-02-22T13:41:17.163Z,23.11
2023-02-22T13:43:43.781Z,24.30
2023-02-22T13:46:10.209Z,23.82
2023-02-22T13:48:37.589Z,23.06
2023-02-22T13:51:04.043Z,23.97
2023-02-22T13:53:30.464Z,22.61
2023-02-22T13:55:57.022Z,22.85
2023-02-22T13:58:23.422Z,22.64
2023-02-22T14:00:49.822Z,23.28
2023-02-22T14:03:18.251Z,23.42
2023-02-22T14:05:44.935Z,22.74
2023-02-22T14:08:11.492Z,23.35
2023-02-22T14:10:37.898Z,22.93
2023-02-22T14:13:04.340Z,22.75
2023-02-22T14:15:31.448Z,22.96
2023-02-22T14:17:58.950Z,22.97
2023-02-22T14:20:25.395Z,22.88
2023-02-22T14:22:52.334Z,22.49
2023-02-22T14:25:27.999Z,24.20
2023-02-22T14:27:55.371Z,22.84
2023-02-22T14:30:21.803Z,23.42
2023-02-22T14:32:48.759Z,23.65
2023-02-22T14:35:26.461Z,22.56
2023-02-22T14:37:55.824Z,22.89
2023-02-22T14:40:23.413Z,22.79
2023-02-22T14:42:51.186Z,23.53
2023-02-22T14:45:18.011Z,23.85
2023-02-22T14:47:45.247Z,23.24
2023-02-22T14:50:11.687Z,23.22
2023-02-22T14:52:38.502Z,23.96
2023-02-22T14:55:06.124Z,23.60
2023-02-22T14:57:34.905Z,24.27
2023-02-22T15:00:01.367Z,23.51
2023-02-22T15:02:27.846Z,23.72
2023-02-22T15:04:54.391Z,24.35
2023-02-22T15:07:20.819Z,23.79
2023-02-22T15:09:47.726Z,23.78
2023-02-22T15:12:14.394Z,23.87
2023-02-22T15:14:41.983Z,24.45
2023-02-22T15:17:08.429Z,23.28
2023-02-22T15:19:35.300Z,22.70
2023-02-22T15:22:01.732Z,23.78
2023-02-22T15:24:28.567Z,22.74
2023-02-22T15:27:02.128Z,21.42
2023-02-22T15:29:29.767Z,20.45
2023-02-22T15:31:56.251Z,21.25
2023-02-22T15:34:22.710Z,20.84
2023-02-22T15:36:49.546Z,19.41
2023-02-22T15:39:17.149Z,19.20
2023-02-22T15:41:43.989Z,19.05
2023-02-22T15:44:22.769Z,18.70
2023-02-22T15:46:51.007Z,19.16
2023-02-22T15:49:17.541Z,18.53
2023-02-22T15:51:44.199Z,18.75
2023-02-22T15:54:18.350Z,17.78
2023-02-22T15:56:52.465Z,17.91
2023-02-22T15:59:22.340Z,17.11
2023-02-22T16:01:48.833Z,17.15
2023-02-22T16:04:16.297Z,16.80
2023-02-22T16:06:43.914Z,17.30
2023-02-22T16:09:10.505Z,17.80
2023-02-22T16:11:37.401Z,16.72
2023-02-22T16:14:04.804Z,17.94
2023-02-22T16:16:32.327Z,18.65
2023-02-22T16:18:59.159Z,18.87
2023-02-22T16:21:25.578Z,18.26
2023-02-22T16:23:53.067Z,18.15
2023-02-22T16:26:19.929Z,17.78
2023-02-22T16:28:46.370Z,20.18
2023-02-22T16:31:12.861Z,18.95
2023-02-22T16:33:41.393Z,19.24
2023-02-22T16:36:09.198Z,19.57
2023-02-22T16:38:36.680Z,19.81
2023-02-22T16:41:04.289Z,19.23
2023-02-22T16:43:31.899Z,20.52
2023-02-22T16:45:59.517Z,20.25
2023-02-22T16:48:27.058Z,20.92
2023-02-22T16:50:54.657Z,20.86
2023-02-22T16:53:22.263Z,20.64
2023-02-22T16:55:49.912Z,20.34
2023-02-22T16:58:17.527Z,20.95
2023-02-22T17:00:46.126Z,20.94
2023-02-22T17:03:13.717Z,19.48
2023-02-22T17:05:42.334Z,19.37
2023-02-22T17:08:08.788Z,19.13
2023-02-22T17:10:36.477Z,18.12
2023-02-22T17:13:16.395Z,18.39
2023-02-22T17:15:48.803Z,18.63
2023-02-22T17:18:16.436Z,19.62
2023-02-22T17:20:43.975Z,20.47
2023-02-22T17:23:11.561Z,22.00
2023-02-22T17:25:39.155Z,21.08
2023-02-22T17:28:07.752Z,22.03
2023-02-22T17:30:35.390Z,21.01
2023-02-22T17:33:02.956Z,23.06
2023-02-22T17:35:30.544Z,21.92
2023-02-22T17:37:58.128Z,20.49
2023-02-22T17:40:24.727Z,20.65
2023-02-22T17:42:51.314Z,19.51
2023-02-22T17:45:18.906Z,19.16
2023-02-22T17:47:45.503Z,19.49
2023-02-22T17:50:12.112Z,20.07
2023-02-22T17:52:39.691Z,19.93
2023-02-22T17:55:06.263Z,20.28
2023-02-22T17:57:33.863Z,21.16
2023-02-22T18:00:00.460Z,19.50
2023-02-22T18:02:27.120Z,21.80
2023-02-22T18:04:53.969Z,21.28
2023-02-22T18:07:20.376Z,21.44
2023-02-22T18:09:46.920Z,21.52
2023-02-22T18:12:13.356Z,21.56
2023-02-22T18:14:39.791Z,21.73
2023-02-22T18:17:06.790Z,21.08
2023-02-22T18:19:33.317Z,20.72
2023-02-22T18:21:59.714Z,20.91
2023-02-22T18:24:26.137Z,19.94
2023-02-22T18:26:52.997Z,19.28
2023-02-22T18:29:20.582Z,19.56
2023-02-22T18:31:48.167Z,18.67
2023-02-22T18:34:15.811Z,19.30
2023-02-22T18:36:43.390Z,20.05
2023-02-22T18:39:09.973Z,20.85
2023-02-22T18:41:38.594Z,18.83
2023-02-22T18:44:06.175Z,17.45
2023-02-22T18:46:32.785Z,17.45
2023-02-22T18:48:59.374Z,16.91
2023-02-22T18:51:27.933Z,15.26
2023-02-22T18:53:55.557Z,16.26
2023-02-22T18:56:22.394Z,16.31
2023-02-22T18:58:48.923Z,16.32
2023-02-22T19:01:15.336Z,17.43
2023-02-22T19:03:42.156Z,17.96
2023-02-22T19:06:09.522Z,19.53
2023-02-22T19:08:37.138Z,19.93
2023-02-22T19:11:06.912Z,21.32
2023-02-22T19:13:34.701Z,20.17
2023-02-22T19:16:02.031Z,20.85
2023-02-22T19:18:28.495Z,17.39
2023-02-22T19:20:55.147Z,13.88
2023-02-22T19:23:22.740Z,13.52
2023-02-22T19:25:49.333Z,13.15
2023-02-22T19:28:15.772Z,13.76
2023-02-22T19:30:42.557Z,14.44
2023-02-22T19:33:09.014Z,14.07
2023-02-22T19:35:35.683Z,13.94
2023-02-22T19:38:02.265Z,12.73
2023-02-22T19:40:29.864Z,11.55
2023-02-22T19:42:56.575Z,12.22
2023-02-22T19:45:24.073Z,12.64
2023-02-22T19:47:51.655Z,12.42
2023-02-22T19:50:19.265Z,11.68
2023-02-22T19:52:45.872Z,8.67
2023-02-22T19:55:12.294Z,7.49
2023-02-22T19:57:39.048Z,7.40
2023-02-22T20:00:05.657Z,16.55
2023-02-22T20:02:33.367Z,20.68
2023-02-22T20:05:00.817Z,19.61
2023-02-22T20:07:27.228Z,17.84
2023-02-22T20:09:54.065Z,18.33
2023-02-22T20:12:20.502Z,17.87
2023-02-22T20:14:48.275Z,18.93
2023-02-22T20:17:15.862Z,17.26
2023-02-22T20:19:43.451Z,13.18
2023-02-22T20:22:10.057Z,11.07
2023-02-22T20:24:37.675Z,9.59
2023-02-22T20:27:05.285Z,8.80
2023-02-22T20:29:32.929Z,8.75
2023-02-22T20:32:00.628Z,8.97
2023-02-22T20:34:28.091Z,8.74
2023-02-22T20:36:54.665Z,8.71
2023-02-22T20:39:21.384Z,7.13
2023-02-22T20:41:48.129Z,6.80
2023-02-22T20:44:15.439Z,6.60
2023-02-22T20:46:43.084Z,7.19
2023-02-22T20:49:10.636Z,7.46
2023-02-22T20:51:37.237Z,7.20
2023-02-22T20:54:03.846Z,8.40
2023-02-22T20:56:30.418Z,8.20
2023-02-22T20:58:58.032Z,8.21
2023-02-22T21:01:25.674Z,11.31
2023-02-22T21:03:54.224Z,12.83
2023-02-22T21:06:21.064Z,13.58
2023-02-22T21:08:49.426Z,13.28
2023-02-22T21:11:18.483Z,11.92
2023-02-22T21:13:46.602Z,11.45
2023-02-22T21:16:15.216Z,11.06
2023-02-22T21:18:44.191Z,9.92
2023-02-22T21:21:12.441Z,8.96
2023-02-22T21:23:40.032Z,8.39
2023-02-22T21:26:07.587Z,6.11
2023-02-22T21:28:50.557Z,5.35
2023-02-22T21:31:19.410Z,5.11
2023-02-22T21:33:47.504Z,4.57
2023-02-22T21:36:16.463Z,4.52
2023-02-22T21:38:44.705Z,5.44
2023-02-22T21:41:12.370Z,5.57
2023-02-22T21:43:39.886Z,5.76
2023-02-22T21:46:08.511Z,6.67
2023-02-22T21:48:37.660Z,7.12
2023-02-22T21:51:05.670Z,7.90
2023-02-22T21:53:34.405Z,8.03
2023-02-22T21:56:03.348Z,8.37
2023-02-22T21:58:31.640Z,8.65
2023-02-22T22:01:00.709Z,8.64
2023-02-22T22:03:28.718Z,8.65
2023-02-22T22:05:57.306Z,8.85
2023-02-22T22:08:26.174Z,8.79
2023-02-22T22:10:53.503Z,8.24
2023-02-22T22:13:22.103Z,9.79
2023-02-22T22:15:50.749Z,13.70
2023-02-22T22:18:18.296Z,14.70
2023-02-22T22:20:47.114Z,15.07
2023-02-22T22:23:15.505Z,14.86
2023-02-22T22:25:44.092Z,13.29
2023-02-22T22:28:12.716Z,11.77
2023-02-22T22:30:41.937Z,11.81
2023-02-22T22:33:11.288Z,11.89
2023-02-22T22:35:38.477Z,12.39
2023-02-22T22:38:07.093Z,12.84
2023-02-22T22:40:36.188Z,13.05
2023-02-22T22:43:03.264Z,13.18
2023-02-22T22:45:31.873Z,12.27
2023-02-22T22:47:59.497Z,12.61
2023-02-22T22:50:27.037Z,11.61
2023-02-22T22:52:57.170Z,12.36
2023-02-22T22:55:24.324Z,13.51
2023-02-22T22:57:51.823Z,13.40
2023-02-22T23:00:20.433Z,14.32
2023-02-22T23:02:49.131Z,14.37
2023-02-22T23:05:18.549Z,16.16
2023-02-22T23:07:45.460Z,15.58
2023-02-22T23:10:13.312Z,13.36
2023-02-22T23:12:41.891Z,15.09
2023-02-22T23:15:11.172Z,15.85
2023-02-22T23:17:38.163Z,16.00
2023-02-22T23:20:05.736Z,17.07
2023-02-22T23:22:32.517Z,16.44
2023-02-22T23:25:01.474Z,15.36
2023-02-22T23:27:29.535Z,16.02
2023-02-22T23:29:58.142Z,16.24
2023-02-22T23:32:24.730Z,17.86
2023-02-22T23:34:51.528Z,18.73
2023-02-22T23:37:20.545Z,19.26
2023-02-22T23:39:47.714Z,21.10
2023-02-22T23:42:14.322Z,21.44
2023-02-22T23:44:40.780Z,21.17
2023-02-22T23:47:08.598Z,18.66
2023-02-22T23:49:36.181Z,17.21
2023-02-22T23:52:03.742Z,16.04
2023-02-22T23:54:31.343Z,17.39
2023-02-22T23:56:58.920Z,17.16
2023-02-22T23:59:26.553Z,16.26
